Time;durP1;ratioP1;P1;durP2;ratioP2;P2;SDS_P1;SDS_P2;PMS_P1;PMS_P2;Temp;Humidity;BMP_temperature;BMP_pressure;BME280_temperature;BME280_humidity;BME280_pressure;Samples;Min_cycle;Max_cycle;Signal;HPM_P1;HPM_P2
2023/10/11 00:02:26;;;;;;;27.13;11.77;;;;;;;3.96;57.09;101572.03;125037;1099;101910;-76
2023/10/11 00:04:57;;;;;;;28.53;13.30;;;;;;;4.00;57.78;101572.27;124891;1099;101957;-76
2023/10/11 00:07:32;;;;;;;28.60;12.80;;;;;;;4.00;57.54;101578.36;124748;1099;104290;-76
2023/10/11 00:10:10;;;;;;;29.93;13.20;;;;;;;3.94;57.22;101576.20;124883;1099;104215;-76
2023/10/11 00:12:42;;;;;;;28.00;12.60;;;;;;;3.99;57.49;101573.98;124894;1098;104204;-75
2023/10/11 00:15:13;;;;;;;24.80;11.53;;;;;;;4.03;57.80;101568.22;124905;1099;104169;-76
2023/10/11 00:17:46;;;;;;;26.27;10.93;;;;;;;4.07;57.66;101569.39;124888;1099;104284;-76
2023/10/11 00:20:28;;;;;;;26.10;12.17;;;;;;;4.08;57.97;101564.31;124821;1099;104238;-76
2023/10/11 00:23:00;;;;;;;26.17;11.43;;;;;;;4.05;58.20;101557.95;124862;1099;102071;-76
2023/10/11 00:25:31;;;;;;;26.37;11.27;;;;;;;4.02;58.75;101562.90;124847;1099;104261;-76
2023/10/11 00:28:03;;;;;;;26.50;11.97;;;;;;;3.96;58.49;101561.64;124867;1099;101836;-76
2023/10/11 00:30:39;;;;;;;26.43;12.57;;;;;;;3.94;58.78;101563.22;124443;1099;102074;-76
2023/10/11 00:33:11;;;;;;;28.87;11.60;;;;;;;3.93;58.64;101563.09;124462;1099;104233;-77
2023/10/11 00:35:47;;;;;;;24.83;11.73;;;;;;;3.98;58.59;101563.47;124401;1099;101848;-77
2023/10/11 00:38:26;;;;;;;26.53;11.90;;;;;;;4.01;58.56;101563.70;124594;1099;103254;-76
2023/10/11 00:41:07;;;;;;;25.25;11.00;;;;;;;3.98;59.08;101564.36;125042;1099;102389;-76
2023/10/11 00:43:40;;;;;;;26.43;11.53;;;;;;;3.93;58.35;101561.40;124643;1099;104169;-77
2023/10/11 00:46:14;;;;;;;24.27;11.67;;;;;;;3.95;58.31;101553.73;124989;1099;104319;-77
2023/10/11 00:48:53;;;;;;;25.70;11.60;;;;;;;3.96;59.05;101551.25;124966;1099;104393;-77
2023/10/11 00:51:29;;;;;;;24.77;11.40;;;;;;;3.99;58.58;101558.39;124393;1099;104201;-77
2023/10/11 00:54:02;;;;;;;27.63;11.73;;;;;;;3.94;59.37;101565.81;124492;1099;101838;-77
2023/10/11 00:56:34;;;;;;;24.83;11.63;;;;;;;3.92;59.40;101566.47;124859;1099;104319;-76
2023/10/11 00:59:08;;;;;;;28.77;12.60;;;;;;;3.88;59.54;101565.33;124919;1099;104238;-76
2023/10/11 01:01:40;;;;;;;27.60;11.30;;;;;;;3.88;58.87;101567.00;124875;1099;104165;-76
2023/10/11 01:04:12;;;;;;;26.73;11.53;;;;;;;3.85;59.59;101559.89;124993;1099;101871;-77
2023/10/11 01:06:43;;;;;;;24.40;11.97;;;;;;;3.84;59.01;101554.58;124928;1098;102522;-77
2023/10/11 01:09:28;;;;;;;33.50;10.93;;;;;;;3.85;59.77;101561.56;124892;1099;104271;-77
2023/10/11 01:12:00;;;;;;;23.65;11.10;;;;;;;3.86;59.07;101569.47;124912;1099;104175;-76
2023/10/11 01:14:56;;;;;;;25.63;11.43;;;;;;;3.91;59.16;101567.24;124936;1099;104203;-76
2023/10/11 01:17:25;;;;;;;26.03;12.03;;;;;;;3.99;59.09;101563.59;124787;1099;102338;-76
2023/10/11 01:19:57;;;;;;;25.50;11.63;;;;;;;3.96;59.19;101564.23;125019;1099;101925;-76
2023/10/11 01:22:28;;;;;;;27.53;11.93;;;;;;;3.89;59.47;101576.61;125082;1099;104358;-77
2023/10/11 01:25:01;;;;;;;28.70;11.83;;;;;;;3.88;59.72;101567.92;125103;1099;104057;-76
2023/10/11 01:27:32;;;;;;;25.00;11.00;;;;;;;3.92;59.55;101569.96;124965;1099;104275;-76
2023/10/11 01:30:07;;;;;;;25.13;10.57;;;;;;;3.95;60.09;101574.50;124848;1099;101833;-75
2023/10/11 01:32:41;;;;;;;25.13;10.43;;;;;;;3.96;59.94;101584.12;125105;1099;104173;-77
2023/10/11 01:35:18;;;;;;;26.20;11.63;;;;;;;3.95;59.44;101577.10;125073;1099;101953;-76
2023/10/11 01:37:55;;;;;;;22.20;10.37;;;;;;;3.96;60.00;101581.52;124941;1099;102086;-76
2023/10/11 01:40:31;;;;;;;24.25;10.70;;;;;;;4.00;59.70;101582.66;124929;1098;104086;-77
2023/10/11 01:43:04;;;;;;;24.70;10.93;;;;;;;3.96;59.84;101582.42;124948;1099;104217;-77
2023/10/11 01:45:39;;;;;;;28.20;11.87;;;;;;;3.91;59.61;101580.23;124993;1099;104235;-76
2023/10/11 01:48:10;;;;;;;26.70;11.57;;;;;;;3.82;59.65;101587.28;125106;1099;104324;-76
2023/10/11 01:50:42;;;;;;;27.00;11.77;;;;;;;3.71;59.31;101596.80;124750;1099;104241;-76
2023/10/11 01:53:14;;;;;;;27.10;11.83;;;;;;;3.60;60.08;101591.67;124960;1099;104401;-76
2023/10/11 01:55:47;;;;;;;23.53;11.20;;;;;;;3.57;59.59;101598.30;124853;1099;104360;-76
2023/10/11 01:58:18;;;;;;;28.07;12.13;;;;;;;3.52;60.40;101608.31;125025;1098;104169;-77
2023/10/11 02:00:50;;;;;;;26.93;12.00;;;;;;;3.45;60.50;101605.09;124942;1099;104156;-76
2023/10/11 02:03:24;;;;;;;27.77;12.50;;;;;;;3.36;60.78;101608.72;124880;1099;104349;-76
2023/10/11 02:05:55;;;;;;;26.33;11.50;;;;;;;3.30;60.15;101610.80;124878;1098;104211;-76
2023/10/11 02:08:27;;;;;;;29.60;11.83;;;;;;;3.30;60.74;101622.88;124890;1098;103645;-76
2023/10/11 02:11:01;;;;;;;26.45;11.50;;;;;;;3.29;60.46;101619.39;124761;1099;101859;-76
2023/10/11 02:13:34;;;;;;;23.63;11.33;;;;;;;3.22;60.81;101623.14;124535;1099;104207;-76
2023/10/11 02:16:10;;;;;;;24.43;12.03;;;;;;;3.17;60.92;101619.27;124432;1099;104213;-77
2023/10/11 02:18:41;;;;;;;24.80;11.40;;;;;;;3.14;61.33;101615.52;124496;1099;101817;-77
2023/10/11 02:21:17;;;;;;;26.23;11.83;;;;;;;3.12;60.66;101620.58;124706;1099;102321;-77
2023/10/11 02:23:48;;;;;;;27.20;11.63;;;;;;;3.11;60.62;101617.86;124607;1099;101900;-77
2023/10/11 02:26:32;;;;;;;27.33;11.90;;;;;;;3.12;60.60;101630.06;125233;1099;104187;-77
2023/10/11 02:29:10;;;;;;;23.97;10.87;;;;;;;3.05;60.88;101645.11;124540;1099;101926;-77
2023/10/11 02:31:41;;;;;;;31.53;11.73;;;;;;;3.05;60.89;101631.20;124583;1099;104166;-77
2023/10/11 02:34:14;;;;;;;26.03;11.80;;;;;;;3.06;61.65;101638.22;124579;1099;104275;-77
2023/10/11 02:36:55;;;;;;;25.90;11.70;;;;;;;3.01;61.30;101636.94;125258;1099;101861;-77
2023/10/11 02:39:31;;;;;;;25.87;11.03;;;;;;;2.93;61.67;101631.10;125269;1099;104265;-77
2023/10/11 02:42:05;;;;;;;23.77;11.20;;;;;;;2.87;61.57;101634.08;125176;1099;104306;-78
2023/10/11 02:44:39;;;;;;;28.40;11.90;;;;;;;2.77;61.90;101635.75;124805;1099;101865;-77
2023/10/11 02:47:11;;;;;;;25.80;12.20;;;;;;;2.70;61.86;101644.70;125169;1099;104226;-77
2023/10/11 02:49:42;;;;;;;25.03;12.07;;;;;;;2.62;61.90;101644.05;125213;1098;101868;-77
2023/10/11 02:52:14;;;;;;;28.37;11.30;;;;;;;2.56;62.15;101646.11;125145;1099;104245;-77
2023/10/11 02:54:46;;;;;;;28.97;12.23;;;;;;;2.49;61.88;101647.27;125125;1099;104326;-76
2023/10/11 02:57:19;;;;;;;26.55;11.50;;;;;;;2.43;62.08;101638.97;124729;1098;104096;-77
2023/10/11 02:59:51;;;;;;;25.60;11.80;;;;;;;2.44;62.24;101639.86;124747;1099;104186;-77
2023/10/11 03:02:29;;;;;;;29.33;11.83;;;;;;;2.47;62.55;101633.25;125118;1099;104198;-76
2023/10/11 03:05:01;;;;;;;29.23;11.50;;;;;;;2.50;61.87;101638.70;124748;1099;104169;-76
2023/10/11 03:07:33;;;;;;;25.60;11.27;;;;;;;2.52;62.21;101649.20;124625;1099;102440;-76
2023/10/11 03:10:13;;;;;;;26.80;11.40;;;;;;;2.54;61.86;101651.92;124656;1099;104278;-77
2023/10/11 03:12:50;;;;;;;23.53;11.27;;;;;;;2.56;62.24;101650.39;124740;1099;102009;-77
2023/10/11 03:15:22;;;;;;;25.70;10.97;;;;;;;2.56;62.57;101656.47;125163;1099;104195;-77
2023/10/11 03:17:53;;;;;;;41.37;13.00;;;;;;;2.60;62.42;101655.97;125325;1099;102448;-78
2023/10/11 03:20:30;;;;;;;29.47;12.07;;;;;;;2.64;62.30;101654.55;124868;1098;101987;-78
2023/10/11 03:23:04;;;;;;;25.90;11.10;;;;;;;2.64;62.68;101670.09;124939;1099;102235;-78
2023/10/11 03:25:38;;;;;;;26.17;10.90;;;;;;;2.66;62.97;101668.53;125421;1099;102006;-78
2023/10/11 03:28:13;;;;;;;31.05;12.03;;;;;;;2.68;62.13;101672.15;125526;1099;104248;-78
2023/10/11 03:30:46;;;;;;;26.40;11.30;;;;;;;2.67;63.02;101675.54;125460;1099;104238;-78
2023/10/11 03:33:18;;;;;;;27.87;12.40;;;;;;;2.64;62.46;101673.58;125382;1099;102491;-78
2023/10/11 03:35:50;;;;;;;25.60;12.00;;;;;;;2.58;62.93;101673.05;125424;1099;104293;-78
2023/10/11 03:38:22;;;;;;;29.30;12.30;;;;;;;2.48;62.96;101671.35;124952;1099;104197;-78
2023/10/11 03:41:10;;;;;;;28.27;11.77;;;;;;;2.44;62.92;101671.84;125438;1099;101881;-78
2023/10/11 03:43:41;;;;;;;30.53;11.77;;;;;;;2.50;63.12;101672.38;125058;1099;118570;-77
2023/10/11 03:46:15;;;;;;;30.90;11.37;;;;;;;2.52;63.00;101677.70;124699;1099;104354;-76
2023/10/11 03:48:53;;;;;;;26.73;11.08;;;;;;;2.44;63.24;101673.55;125069;1099;104197;-76
2023/10/11 03:51:24;;;;;;;24.03;10.10;;;;;;;2.36;63.26;101666.80;125151;1099;104281;-77
2023/10/11 03:53:55;;;;;;;25.00;11.27;;;;;;;2.30;63.17;101667.16;125111;1098;104262;-76
2023/10/11 03:56:27;;;;;;;23.73;10.53;;;;;;;2.30;63.20;101672.34;125043;1099;104268;-77
2023/10/11 03:59:00;;;;;;;22.23;10.20;;;;;;;2.31;62.78;101672.47;124978;1099;104310;-76
2023/10/11 04:01:37;;;;;;;27.55;11.70;;;;;;;2.24;62.94;101669.20;125045;1098;102090;-76
2023/10/11 04:04:08;;;;;;;25.37;9.83;;;;;;;2.24;63.16;101677.87;124803;1099;111659;-76
2023/10/11 04:06:40;;;;;;;24.77;10.83;;;;;;;2.26;63.78;101673.77;125206;1098;104217;-77
2023/10/11 04:09:22;;;;;;;26.30;11.70;;;;;;;2.30;63.26;101677.52;125180;1099;104251;-78
2023/10/11 04:11:55;;;;;;;27.37;11.33;;;;;;;2.32;63.77;101678.55;125009;1099;104265;-76
2023/10/11 04:14:39;;;;;;;25.70;11.03;;;;;;;2.34;63.50;101685.69;125087;1099;104291;-77
2023/10/11 04:17:15;;;;;;;27.00;12.03;;;;;;;2.36;63.72;101687.52;124234;1102;102008;-74
2023/10/11 04:19:46;;;;;;;29.57;12.07;;;;;;;2.36;63.72;101692.70;124524;1098;102038;-74
2023/10/11 04:22:23;;;;;;;27.90;12.03;;;;;;;2.38;64.03;101691.14;124683;1099;104166;-75
2023/10/11 04:24:55;;;;;;;31.17;12.57;;;;;;;2.40;64.33;101694.77;124811;1099;107052;-75
2023/10/11 04:30:24;;;;;;;27.77;11.87;;;;;;;2.41;64.33;101700.08;125001;1098;104178;-76
2023/10/11 04:32:57;;;;;;;26.23;11.43;;;;;;;2.46;64.34;101705.66;124357;1099;104166;-76
2023/10/11 04:35:36;;;;;;;27.60;12.50;;;;;;;2.54;63.82;101706.34;124799;1099;104238;-74
2023/10/11 04:38:10;;;;;;;30.83;11.43;;;;;;;2.63;64.21;101712.31;124660;1099;101955;-74
2023/10/11 04:40:41;;;;;;;;;;;;;;;2.73;63.98;101714.95;124917;1099;101980;-75
2023/10/11 04:43:23;;;;;;;29.33;11.27;;;;;;;2.81;64.76;101715.61;124865;1099;102785;-75
2023/10/11 04:45:59;;;;;;;26.13;12.03;;;;;;;2.90;64.47;101720.66;124981;1099;104245;-76
2023/10/11 04:48:33;;;;;;;31.80;12.10;;;;;;;2.96;64.75;101721.19;124622;1099;104149;-76
2023/10/11 04:51:21;;;;;;;32.15;12.18;;;;;;;3.04;64.87;101727.96;125059;1098;104211;-75
2023/10/11 04:53:56;;;;;;;28.33;12.07;;;;;;;3.15;64.60;101723.69;125099;1099;101839;-76
2023/10/11 04:59:20;;;;;;;27.13;11.63;;;;;;;3.30;64.55;101721.47;125145;1099;104599;-77
2023/10/11 05:02:02;;;;;;;30.03;13.67;;;;;;;3.37;65.14;101732.49;124888;1099;102897;-76
2023/10/11 05:04:34;;;;;;;28.37;12.07;;;;;;;3.45;64.35;101727.05;125184;1099;104172;-77
2023/10/11 05:07:12;;;;;;;31.53;13.30;;;;;;;3.54;64.97;101735.61;125074;1099;104274;-77
2023/10/11 05:09:52;;;;;;;30.30;12.50;;;;;;;3.61;64.81;101735.32;124957;1099;101922;-77
2023/10/11 05:12:24;;;;;;;30.30;12.93;;;;;;;3.70;64.84;101733.49;125474;1099;102609;-77
2023/10/11 05:15:00;;;;;;;29.90;13.00;;;;;;;3.78;64.54;101740.22;125279;1099;103584;-77
2023/10/11 05:17:41;;;;;;;26.93;12.40;;;;;;;3.82;64.88;101737.88;124991;1099;103031;-78
2023/10/11 05:20:44;;;;;;;24.37;11.93;;;;;;;3.84;64.61;101741.53;125159;1099;104165;-75
2023/10/11 05:23:16;;;;;;;28.67;12.07;;;;;;;3.80;65.00;101755.92;125698;1098;101895;-77
2023/10/11 05:25:59;;;;;;;27.50;12.47;;;;;;;3.82;64.64;101753.45;124862;1099;104242;-77
2023/10/11 05:31:44;;;;;;;30.13;13.10;;;;;;;3.95;65.41;101746.80;124633;1102;101829;-80
2023/10/11 05:51:11;;;;;;;27.60;12.20;;;;;;;4.58;65.36;101765.68;124447;1102;104274;-85
2023/10/11 05:53:43;;;;;;;30.30;13.57;;;;;;;4.60;64.89;101772.83;125284;1102;102011;-82
2023/10/11 05:56:20;;;;;;;36.70;13.87;;;;;;;4.65;65.46;101768.89;124681;1102;102387;-83
2023/10/11 05:58:53;;;;;;;32.53;14.00;;;;;;;4.76;64.93;101769.75;125679;1102;104235;-83
2023/10/11 06:01:26;;;;;;;26.77;13.47;;;;;;;4.86;65.35;101776.58;125643;1104;101829;-77
2023/10/11 06:04:04;;;;;;;32.50;14.83;;;;;;;4.91;65.36;101779.54;125872;1102;104192;-77
2023/10/11 06:06:39;;;;;;;35.60;14.53;;;;;;;4.97;65.26;101777.42;125930;1102;102316;-85
2023/10/11 06:09:16;;;;;;;33.43;15.00;;;;;;;5.05;65.10;101776.35;127388;1101;101514;-88
2023/10/11 06:11:50;;;;;;;31.87;15.13;;;;;;;5.15;65.36;101781.47;125201;1102;104217;-83
2023/10/11 06:14:24;;;;;;;36.75;15.78;;;;;;;5.22;65.17;101785.48;126077;1102;101865;-84
2023/10/11 06:17:16;;;;;;;35.57;15.53;;;;;;;5.31;65.23;101783.56;124660;1105;104296;-84
2023/10/11 06:19:54;;;;;;;38.27;16.80;;;;;;;5.40;65.15;101779.06;125812;1102;101934;-86
2023/10/11 06:22:28;;;;;;;33.63;16.53;;;;;;;5.48;65.32;101778.76;125533;1105;101829;-85
2023/10/11 06:25:07;;;;;;;33.53;17.05;;;;;;;5.53;65.01;101787.81;124602;1105;104169;-80
2023/10/11 06:30:42;;;;;;;41.87;17.30;;;;;;;5.71;64.99;101794.43;125933;1102;102079;-83
2023/10/11 06:33:14;;;;;;;33.63;17.07;;;;;;;5.83;65.02;101793.53;126212;1102;101979;-81
2023/10/11 06:35:49;;;;;;;36.13;17.13;;;;;;;5.95;64.76;101791.86;126222;1101;104281;-82
2023/10/11 06:38:23;;;;;;;43.07;18.27;;;;;;;6.08;65.00;101794.63;124812;1102;104274;-80
2023/10/11 06:41:36;;;;;;;38.77;18.30;;;;;;;6.24;64.94;101791.45;125384;1102;101833;-83
2023/10/11 06:43:52;;;;;;;39.93;17.80;;;;;;;6.42;65.07;101798.80;126174;1102;102057;-84
2023/10/11 06:46:29;;;;;;;38.30;18.23;;;;;;;6.56;64.77;101792.92;125247;1105;103209;-83
2023/10/11 06:49:05;;;;;;;35.47;17.93;;;;;;;6.70;64.57;101788.70;125373;1102;101813;-79
2023/10/11 06:51:43;;;;;;;34.93;17.53;;;;;;;6.89;64.27;101796.14;125099;1102;104245;-80
2023/10/11 06:54:20;;;;;;;37.83;16.27;;;;;;;7.07;64.87;101799.13;124931;1102;104214;-76
2023/10/11 06:56:59;;;;;;;29.83;13.27;;;;;;;7.26;64.49;101801.34;124278;1102;102066;-81
2023/10/11 06:59:50;;;;;;;27.03;11.90;;;;;;;7.47;64.45;101788.86;124236;1102;104217;-78
2023/10/11 07:02:34;;;;;;;32.57;13.93;;;;;;;7.66;63.63;101785.78;124408;1102;104275;-83
2023/10/11 07:05:08;;;;;;;32.13;13.20;;;;;;;7.82;63.79;101787.75;125253;1102;104171;-81
2023/10/11 07:07:39;;;;;;;28.87;12.10;;;;;;;7.98;63.73;101778.30;124407;1102;101940;-79
2023/10/11 07:10:28;;;;;;;27.80;12.90;;;;;;;8.09;63.46;101790.39;125707;1102;101946;-77
2023/10/11 07:13:11;;;;;;;25.43;12.53;;;;;;;8.18;62.84;101787.46;124247;1102;102229;-77
2023/10/11 07:15:46;;;;;;;29.13;12.30;;;;;;;8.25;62.57;101784.45;124928;1102;104275;-82
2023/10/11 07:18:25;;;;;;;28.80;12.73;;;;;;;8.34;62.52;101778.94;124670;1102;102065;-77
2023/10/11 07:21:07;;;;;;;32.50;13.73;;;;;;;8.46;62.56;101779.73;124301;1102;102227;-79
2023/10/11 07:23:55;;;;;;;28.90;13.70;;;;;;;8.55;62.44;101785.56;124322;1102;101970;-77
2023/10/11 07:30:16;;;;;;;39.13;16.15;;;;;;;8.75;62.03;101785.95;125161;1102;101825;-81
2023/10/11 07:33:04;;;;;;;33.20;15.03;;;;;;;8.89;61.38;101786.83;125150;1102;104192;-82
2023/10/11 07:36:03;;;;;;;32.60;15.93;;;;;;;8.97;61.25;101780.34;125094;1103;104182;-77
2023/10/11 07:38:43;;;;;;;32.07;15.50;;;;;;;9.09;61.62;101778.50;124398;1102;102788;-80
2023/10/11 07:41:20;;;;;;;31.10;16.27;;;;;;;9.25;60.98;101782.96;124803;1102;102100;-86
2023/10/11 07:44:01;;;;;;;33.00;15.30;;;;;;;9.42;61.04;101772.63;125475;1102;102022;-82
2023/10/11 07:46:38;;;;;;;;;;;;;;;9.57;60.73;101772.63;125373;1102;104255;-82
2023/10/11 07:49:42;;;;;;;28.75;14.30;;;;;;;9.72;60.59;101770.92;126222;1102;104192;-82
2023/10/11 07:52:22;;;;;;;26.60;13.40;;;;;;;9.94;60.94;101773.12;125264;1102;104229;-82
2023/10/11 07:54:57;;;;;;;26.20;13.20;;;;;;;10.12;60.19;101770.64;125976;1101;104220;-85
2023/10/11 07:57:39;;;;;;;32.03;13.23;;;;;;;10.27;60.64;101768.02;125976;1102;102309;-82
2023/10/11 08:00:18;;;;;;;32.23;14.07;;;;;;;10.44;59.93;101766.38;126560;1102;101690;-83
2023/10/11 08:03:03;;;;;;;30.90;11.80;;;;;;;10.58;59.85;101777.62;125975;1102;102221;-84
2023/10/11 08:05:45;;;;;;;28.63;12.10;;;;;;;10.72;59.84;101779.33;126129;1102;104083;-84
2023/10/11 08:08:21;;;;;;;25.68;11.05;;;;;;;10.87;59.52;101762.59;126560;1102;101981;-82
2023/10/11 08:11:05;;;;;;;24.13;11.40;;;;;;;11.06;58.90;101759.23;125927;1101;104245;-78
2023/10/11 08:13:45;;;;;;;26.70;11.83;;;;;;;11.21;58.57;101752.18;125369;1102;102619;-77
2023/10/11 08:16:22;;;;;;;27.50;11.07;;;;;;;11.35;58.54;101749.39;124863;1102;104188;-78
2023/10/11 08:18:53;;;;;;;24.33;10.50;;;;;;;11.51;58.51;101754.60;124313;1102;104245;-75
2023/10/11 08:21:26;;;;;;;28.73;10.23;;;;;;;11.67;57.76;101756.29;124972;1102;102683;-82
2023/10/11 08:24:06;;;;;;;22.60;9.07;;;;;;;11.78;57.46;101743.69;124810;1102;102950;-78
2023/10/11 08:26:44;;;;;;;25.30;9.83;;;;;;;11.95;57.05;101757.73;124766;1102;102297;-76
2023/10/11 08:29:27;;;;;;;20.03;9.27;;;;;;;12.05;56.36;101750.38;124760;1102;102241;-79
2023/10/11 08:32:06;;;;;;;16.50;5.30;;;;;;;12.21;55.68;101757.28;124479;1105;102618;-77
2023/10/11 08:34:38;;;;;;;11.13;4.23;;;;;;;12.35;55.12;101746.55;124788;1104;102054;-77
2023/10/11 08:37:09;;;;;;;12.47;4.03;;;;;;;12.49;54.88;101749.84;124659;1106;104169;-79
2023/10/11 08:39:46;;;;;;;10.97;4.43;;;;;;;12.55;54.48;101748.39;124828;1105;104281;-79
2023/10/11 08:42:46;;;;;;;7.73;3.97;;;;;;;12.66;53.87;101735.73;124794;1105;102345;-77
2023/10/11 08:45:34;;;;;;;8.70;3.70;;;;;;;12.85;53.17;101737.48;124677;1103;104152;-76
2023/10/11 08:48:11;;;;;;;8.53;3.90;;;;;;;13.02;52.91;101742.64;124609;1106;103026;-78
2023/10/11 08:50:51;;;;;;;10.20;4.20;;;;;;;13.11;52.68;101728.14;124233;1105;101937;-75
2023/10/11 08:53:24;;;;;;;8.20;3.73;;;;;;;13.30;52.01;101723.69;124142;1104;104182;-75
2023/10/11 08:55:59;;;;;;;7.40;3.50;;;;;;;13.47;51.66;101725.35;124216;1105;101921;-74
2023/10/11 08:58:36;;;;;;;9.47;3.90;;;;;;;13.59;50.52;101729.38;124029;1105;103809;-77
2023/10/11 09:01:10;;;;;;;6.83;3.53;;;;;;;13.71;50.93;101728.98;123937;1105;102366;-74
2023/10/11 09:04:12;;;;;;;9.63;3.83;;;;;;;13.77;51.66;101727.49;125679;1104;101839;-81
2023/10/11 09:07:13;;;;;;;8.00;3.80;;;;;;;13.88;50.56;101721.78;126037;1105;104088;-82
2023/10/11 09:10:06;;;;;;;10.53;3.90;;;;;;;13.99;48.63;101725.75;125640;1102;101967;-80
2023/10/11 09:13:08;;;;;;;7.23;3.77;;;;;;;14.16;49.35;101715.89;125297;1102;104252;-79
2023/10/11 09:15:54;;;;;;;8.53;3.47;;;;;;;14.25;49.26;101718.91;124833;1101;101913;-77
2023/10/11 09:18:34;;;;;;;13.50;4.10;;;;;;;14.28;48.91;101719.03;124060;1102;104363;-77
2023/10/11 09:21:29;;;;;;;10.60;4.03;;;;;;;14.36;48.09;101722.86;124585;1102;102026;-78
2023/10/11 09:24:03;;;;;;;9.93;3.90;;;;;;;14.45;48.51;101718.81;125057;1102;102372;-80
2023/10/11 09:26:42;;;;;;;11.27;4.20;;;;;;;14.49;47.84;101715.42;124935;1102;102208;-80
2023/10/11 09:29:30;;;;;;;10.00;4.37;;;;;;;14.56;46.71;101704.27;126055;1101;102774;-79
2023/10/11 09:32:04;;;;;;;16.13;4.00;;;;;;;14.65;46.78;101702.02;126405;1102;102393;-77
2023/10/11 09:34:41;;;;;;;9.93;3.37;;;;;;;14.73;47.12;101710.23;124949;1102;103909;-79
2023/10/11 09:37:14;;;;;;;11.23;3.80;;;;;;;14.75;46.82;101697.97;124915;1102;104208;-76
2023/10/11 09:39:45;;;;;;;8.20;3.67;;;;;;;14.81;46.44;101690.28;124950;1099;103042;-78
2023/10/11 09:42:17;;;;;;;8.87;4.27;;;;;;;14.86;45.44;101688.70;125046;1099;102678;-78
2023/10/11 09:44:57;;;;;;;8.53;4.20;;;;;;;14.94;45.75;101674.88;124989;1099;104174;-79
2023/10/11 09:47:34;;;;;;;9.60;3.70;;;;;;;15.01;46.34;101666.34;125263;1099;101993;-78
2023/10/11 09:50:19;;;;;;;6.87;3.07;;;;;;;15.06;43.94;101660.36;125915;1101;101830;-78
2023/10/11 09:53:00;;;;;;;5.90;3.40;;;;;;;15.17;44.51;101670.42;125045;1102;102483;-79
2023/10/11 09:55:51;;;;;;;10.47;3.87;;;;;;;15.23;45.17;101665.36;125038;1102;102081;-76
2023/10/11 09:58:35;;;;;;;8.10;3.20;;;;;;;15.26;43.20;101674.28;125859;1098;107030;-78
2023/10/11 10:01:18;;;;;;;7.83;2.87;;;;;;;15.33;43.04;101659.52;124576;1098;104360;-77
2023/10/11 10:03:54;;;;;;;6.07;3.20;;;;;;;15.38;43.94;101657.96;124607;1099;101861;-76
2023/10/11 10:06:25;;;;;;;7.50;3.07;;;;;;;15.45;44.02;101657.30;124382;1099;104228;-74
2023/10/11 10:09:24;;;;;;;10.73;3.20;;;;;;;15.45;42.46;101649.37;125313;1099;104185;-74
2023/10/11 10:12:25;;;;;;;5.50;2.87;;;;;;;15.50;42.37;101649.52;125014;1102;102452;-78
2023/10/11 10:15:23;;;;;;;6.57;3.10;;;;;;;15.57;42.10;101648.01;125494;1099;104245;-80
2023/10/11 10:18:24;;;;;;;6.80;3.27;;;;;;;15.55;41.78;101640.02;124523;1099;102035;-74
2023/10/11 10:21:05;;;;;;;7.23;3.07;;;;;;;15.62;41.14;101631.42;124428;1102;101840;-76
2023/10/11 10:23:40;;;;;;;6.27;3.27;;;;;;;15.64;40.21;101627.09;124716;1102;101984;-77
2023/10/11 10:26:43;;;;;;;7.77;2.97;;;;;;;15.65;41.03;101625.34;124357;1102;104223;-78
2023/10/11 10:29:46;;;;;;;6.90;2.90;;;;;;;15.72;40.40;101618.49;125633;1101;104223;-76
2023/10/11 10:32:23;;;;;;;8.93;3.43;;;;;;;15.78;40.33;101622.30;124201;1102;104236;-74
2023/10/11 10:35:41;;;;;;;8.03;3.13;;;;;;;15.84;41.31;101618.03;124470;1102;101865;-77
2023/10/11 10:38:12;;;;;;;8.33;3.03;;;;;;;15.90;40.16;101610.30;124770;1099;102377;-77
2023/10/11 10:41:26;;;;;;;9.30;3.30;;;;;;;15.96;40.19;101599.90;125275;1098;104173;-77
2023/10/11 10:44:09;;;;;;;8.70;3.43;;;;;;;16.03;40.36;101596.57;124265;1099;102038;-76
2023/10/11 10:47:06;;;;;;;12.67;3.60;;;;;;;16.05;39.38;101599.27;124408;1099;102205;-76
2023/10/11 10:49:54;;;;;;;9.90;3.87;;;;;;;16.12;39.83;101598.61;124335;1102;104264;-75
2023/10/11 10:52:34;;;;;;;6.53;3.37;;;;;;;16.13;38.60;101593.36;124326;1102;102283;-76
2023/10/11 10:55:14;;;;;;;11.73;3.87;;;;;;;16.08;38.17;101589.69;124334;1102;104294;-74
2023/10/11 10:57:51;;;;;;;9.13;3.37;;;;;;;16.07;38.76;101590.53;124355;1101;104102;-74
2023/10/11 11:00:33;;;;;;;9.27;3.60;;;;;;;16.02;38.53;101592.15;124295;1102;109434;-77
2023/10/11 11:03:31;;;;;;;8.70;4.00;;;;;;;15.94;38.65;101583.05;124316;1099;102031;-75
2023/10/11 11:06:15;;;;;;;7.67;3.73;;;;;;;15.87;37.33;101581.08;125857;1099;101914;-77
2023/10/11 11:08:50;;;;;;;8.13;3.30;;;;;;;15.86;38.24;101584.56;124628;1099;104163;-80
2023/10/11 11:11:37;;;;;;;9.00;3.50;;;;;;;15.81;38.13;101572.08;124913;1102;104066;-80
2023/10/11 11:14:19;;;;;;;7.47;3.27;;;;;;;15.83;38.06;101568.59;125491;1102;104197;-82
2023/10/11 11:16:59;;;;;;;7.47;3.30;;;;;;;15.88;38.30;101561.68;124421;1102;104220;-75
2023/10/11 11:19:35;;;;;;;6.00;3.20;;;;;;;15.97;38.37;101561.97;124497;1099;102070;-79
2023/10/11 11:22:19;;;;;;;11.13;3.53;;;;;;;16.03;37.56;101562.16;126715;1098;104191;-77
2023/10/11 11:25:28;;;;;;;8.33;3.20;;;;;;;16.08;37.75;101564.94;124311;1099;104232;-76
2023/10/11 11:28:38;;;;;;;;;;;;;;;;;;;;;
2023/10/11 11:31:38;;;;;;;8.97;3.00;;;;;;;16.07;37.29;101556.11;125524;1101;102042;-83
2023/10/11 11:34:17;;;;;;;8.30;3.53;;;;;;;16.05;36.71;101555.17;125243;1102;102019;-75
2023/10/11 11:37:04;;;;;;;6.07;3.10;;;;;;;15.97;36.57;101543.44;124250;1102;104266;-73
2023/10/11 11:40:17;;;;;;;8.97;3.30;;;;;;;16.06;37.01;101554.30;124272;1102;102001;-75
2023/10/11 11:42:48;;;;;;;8.00;3.70;;;;;;;16.07;36.83;101550.81;124384;1102;104179;-76
2023/10/11 11:45:26;;;;;;;;;;;;;;;16.07;36.41;101545.52;124361;1102;101942;-74
2023/10/11 11:48:14;;;;;;;6.73;2.90;;;;;;;16.08;36.38;101536.73;125645;1101;102592;-75
2023/10/11 11:54:20;;;;;;;8.80;3.53;;;;;;;16.14;35.89;101541.30;125856;1101;104262;-78
2023/10/11 11:57:30;;;;;;;5.20;2.93;;;;;;;16.20;36.29;101537.94;124391;1102;102301;-76
2023/10/11 12:00:38;;;;;;;7.73;3.37;;;;;;;16.26;36.32;101531.06;124593;1102;101958;-78
2023/10/11 12:03:05;;;;;;;8.90;3.23;;;;;;;16.38;36.15;101535.83;125041;1102;104185;-78
2023/10/11 12:05:50;;;;;;;7.87;3.33;;;;;;;16.42;35.99;101529.74;125683;1102;102112;-79
2023/10/11 12:08:34;;;;;;;7.50;3.05;;;;;;;16.46;36.34;101528.98;125149;1100;104191;-78
2023/10/11 12:11:09;;;;;;;9.30;3.10;;;;;;;16.47;35.53;101530.79;124489;1102;104245;-80
2023/10/11 12:13:49;;;;;;;8.00;3.50;;;;;;;16.47;35.40;101527.22;124755;1102;104211;-82
2023/10/11 12:16:24;;;;;;;7.27;3.10;;;;;;;16.43;35.94;101517.41;124755;1102;101958;-76
2023/10/11 12:18:59;;;;;;;;;;;;;;;16.38;35.53;101511.98;126027;1101;104192;-83
2023/10/11 12:21:42;;;;;;;7.67;3.60;;;;;;;16.36;35.33;101513.67;125226;1102;102092;-76
2023/10/11 12:24:18;;;;;;;8.67;3.03;;;;;;;16.32;35.50;101504.75;125853;1101;104271;-78
2023/10/11 12:26:57;;;;;;;4.23;3.00;;;;;;;16.27;35.29;101505.50;125317;1102;104172;-80
2023/10/11 12:29:38;;;;;;;8.30;3.40;;;;;;;16.22;34.86;101508.02;124612;1102;104163;-76
2023/10/11 12:32:21;;;;;;;7.37;3.50;;;;;;;16.21;35.14;101502.67;125704;1099;101822;-76
2023/10/11 12:35:18;;;;;;;;;;;;;;;;;;;;;
2023/10/11 12:37:53;;;;;;;8.87;3.53;;;;;;;16.19;34.74;101505.28;127162;1098;101901;-79